Decoded Metar for FALA (JOHANNESBURG in SOUTH AFRICA) (IATA:HLA) | Meteo·Mobile Aviation Weather
aviador You're here:

FALA Decoded Metar

JOHANNESBURG in SOUTH AFRICA
Report Time2020-01-25 17:00:00
UTC Time2020-01-25 17:58:18
Flight Rules vfr VFR
Wind310° at 06 kt
W.Decomp.*RWY 24: 0.2 kt HW 6.0 kt RCW
Visibility9999 m
Phenomena:N/A
Clouds:Few 045 Hf
Expected CloudBase > 2,800 ft AGL from Temp-Dew spread
CeilingNone
Temp22°C (ISA +16)
Dew Point15°C (65% RH)
AAT21.5°C
QNH1020 hPa
Density Alt6,368 ft
Elevation4,518 ft
Report Wrong Elevation
Raw Report
FALA 251700Z 31006KT 9999 FEW045 22/15 Q1020 NOSIG=

Extra information for FALA:More info

Metar Taf Metar & Taf Last 4 Metars F.Rules Stats Wind Profile Meteogram Temp Stats Airport Information Weather charts Add Link Nearby VenuesMetar ALERT Operation Metar Decoded Social comments